sensor_id;sensor_type;location;lat;lon;timestamp;P1;durP1;ratioP1;P2;durP2;ratioP2
20122;SDS011;10222;50.848;4.336;2023-08-20T00:01:44;4.30;;;1.17;;
20122;SDS011;10222;50.848;4.336;2023-08-20T00:04:10;7.07;;;1.60;;
20122;SDS011;10222;50.848;4.336;2023-08-20T00:06:36;5.72;;;1.85;;
20122;SDS011;10222;50.848;4.336;2023-08-20T00:09:02;4.22;;;1.10;;
20122;SDS011;10222;50.848;4.336;2023-08-20T00:11:31;7.60;;;1.40;;
20122;SDS011;10222;50.848;4.336;2023-08-20T00:13:57;4.53;;;1.02;;
20122;SDS011;10222;50.848;4.336;2023-08-20T00:16:23;6.28;;;1.60;;
20122;SDS011;10222;50.848;4.336;2023-08-20T00:18:49;5.50;;;1.73;;
20122;SDS011;10222;50.848;4.336;2023-08-20T00:21:15;6.95;;;1.80;;
20122;SDS011;10222;50.848;4.336;2023-08-20T00:23:42;4.13;;;1.48;;
20122;SDS011;10222;50.848;4.336;2023-08-20T00:26:09;5.38;;;1.05;;
20122;SDS011;10222;50.848;4.336;2023-08-20T00:28:35;5.47;;;1.58;;
20122;SDS011;10222;50.848;4.336;2023-08-20T00:31:03;8.50;;;1.85;;
20122;SDS011;10222;50.848;4.336;2023-08-20T00:33:29;6.63;;;1.30;;
20122;SDS011;10222;50.848;4.336;2023-08-20T00:35:55;6.03;;;1.45;;
20122;SDS011;10222;50.848;4.336;2023-08-20T00:38:21;5.05;;;1.70;;
20122;SDS011;10222;50.848;4.336;2023-08-20T00:40:47;4.10;;;1.20;;
20122;SDS011;10222;50.848;4.336;2023-08-20T00:43:13;5.60;;;1.15;;
20122;SDS011;10222;50.848;4.336;2023-08-20T00:45:42;4.60;;;1.35;;
20122;SDS011;10222;50.848;4.336;2023-08-20T00:48:08;5.00;;;1.45;;
20122;SDS011;10222;50.848;4.336;2023-08-20T00:50:35;3.80;;;1.10;;
20122;SDS011;10222;50.848;4.336;2023-08-20T00:53:01;2.83;;;1.33;;
20122;SDS011;10222;50.848;4.336;2023-08-20T00:55:27;4.57;;;1.38;;
20122;SDS011;10222;50.848;4.336;2023-08-20T00:57:53;4.22;;;1.33;;
20122;SDS011;10222;50.848;4.336;2023-08-20T01:00:20;5.57;;;1.73;;
20122;SDS011;10222;50.848;4.336;2023-08-20T01:02:46;5.63;;;1.60;;
20122;SDS011;10222;50.848;4.336;2023-08-20T01:05:12;5.95;;;1.92;;
20122;SDS011;10222;50.848;4.336;2023-08-20T01:07:43;7.50;;;1.38;;
20122;SDS011;10222;50.848;4.336;2023-08-20T01:12:42;6.43;;;1.70;;
20122;SDS011;10222;50.848;4.336;2023-08-20T01:15:09;5.97;;;1.55;;
20122;SDS011;10222;50.848;4.336;2023-08-20T01:17:39;9.52;;;1.50;;
20122;SDS011;10222;50.848;4.336;2023-08-20T01:20:05;4.72;;;1.42;;
20122;SDS011;10222;50.848;4.336;2023-08-20T01:30:07;7.95;;;1.55;;
20122;SDS011;10222;50.848;4.336;2023-08-20T01:32:33;4.30;;;1.33;;
20122;SDS011;10222;50.848;4.336;2023-08-20T01:35:00;3.10;;;1.42;;
20122;SDS011;10222;50.848;4.336;2023-08-20T01:37:26;3.05;;;1.48;;
20122;SDS011;10222;50.848;4.336;2023-08-20T01:39:52;6.32;;;1.60;;
20122;SDS011;10222;50.848;4.336;2023-08-20T01:42:18;2.95;;;1.15;;
20122;SDS011;10222;50.848;4.336;2023-08-20T01:44:45;7.70;;;1.48;;
20122;SDS011;10222;50.848;4.336;2023-08-20T01:47:11;5.35;;;1.27;;
20122;SDS011;10222;50.848;4.336;2023-08-20T01:49:37;6.25;;;1.48;;
20122;SDS011;10222;50.848;4.336;2023-08-20T01:52:04;3.00;;;1.20;;
20122;SDS011;10222;50.848;4.336;2023-08-20T01:54:30;8.95;;;1.73;;
20122;SDS011;10222;50.848;4.336;2023-08-20T01:56:56;6.15;;;1.50;;
20122;SDS011;10222;50.848;4.336;2023-08-20T01:59:22;4.10;;;1.23;;
20122;SDS011;10222;50.848;4.336;2023-08-20T02:01:48;5.05;;;1.45;;
20122;SDS011;10222;50.848;4.336;2023-08-20T02:04:14;6.00;;;1.45;;
20122;SDS011;10222;50.848;4.336;2023-08-20T02:06:40;6.32;;;1.75;;
20122;SDS011;10222;50.848;4.336;2023-08-20T02:09:06;6.63;;;1.30;;
20122;SDS011;10222;50.848;4.336;2023-08-20T02:11:32;4.95;;;1.35;;
20122;SDS011;10222;50.848;4.336;2023-08-20T02:14:01;4.00;;;1.17;;
20122;SDS011;10222;50.848;4.336;2023-08-20T02:16:27;4.78;;;0.75;;
20122;SDS011;10222;50.848;4.336;2023-08-20T02:18:53;4.80;;;1.15;;
20122;SDS011;10222;50.848;4.336;2023-08-20T02:21:19;3.70;;;1.20;;
20122;SDS011;10222;50.848;4.336;2023-08-20T02:23:45;4.07;;;1.30;;
20122;SDS011;10222;50.848;4.336;2023-08-20T02:26:11;5.00;;;1.25;;
20122;SDS011;10222;50.848;4.336;2023-08-20T02:28:37;5.63;;;1.10;;
20122;SDS011;10222;50.848;4.336;2023-08-20T02:31:04;2.88;;;1.00;;
20122;SDS011;10222;50.848;4.336;2023-08-20T02:33:30;5.60;;;1.10;;
20122;SDS011;10222;50.848;4.336;2023-08-20T02:36:03;3.53;;;1.00;;
20122;SDS011;10222;50.848;4.336;2023-08-20T02:38:29;4.78;;;1.20;;
20122;SDS011;10222;50.848;4.336;2023-08-20T02:40:55;4.72;;;1.30;;
20122;SDS011;10222;50.848;4.336;2023-08-20T02:43:21;5.35;;;1.33;;
20122;SDS011;10222;50.848;4.336;2023-08-20T02:45:48;7.33;;;1.30;;
20122;SDS011;10222;50.848;4.336;2023-08-20T02:48:14;6.18;;;1.52;;
20122;SDS011;10222;50.848;4.336;2023-08-20T02:50:40;6.72;;;1.92;;
20122;SDS011;10222;50.848;4.336;2023-08-20T02:53:07;2.40;;;1.23;;
20122;SDS011;10222;50.848;4.336;2023-08-20T02:55:33;5.18;;;1.40;;
20122;SDS011;10222;50.848;4.336;2023-08-20T02:58:01;5.53;;;1.88;;
20122;SDS011;10222;50.848;4.336;2023-08-20T03:00:29;8.50;;;2.20;;
20122;SDS011;10222;50.848;4.336;2023-08-20T03:02:55;4.13;;;1.70;;
20122;SDS011;10222;50.848;4.336;2023-08-20T03:05:21;6.63;;;1.70;;
20122;SDS011;10222;50.848;4.336;2023-08-20T03:07:47;7.03;;;1.88;;
20122;SDS011;10222;50.848;4.336;2023-08-20T03:10:14;5.85;;;1.98;;
20122;SDS011;10222;50.848;4.336;2023-08-20T03:12:40;5.33;;;1.70;;
20122;SDS011;10222;50.848;4.336;2023-08-20T03:15:06;6.30;;;2.37;;
20122;SDS011;10222;50.848;4.336;2023-08-20T03:17:32;4.90;;;2.08;;
20122;SDS011;10222;50.848;4.336;2023-08-20T03:19:59;6.37;;;1.97;;
20122;SDS011;10222;50.848;4.336;2023-08-20T03:22:26;8.33;;;2.17;;
20122;SDS011;10222;50.848;4.336;2023-08-20T03:24:53;8.43;;;2.03;;
20122;SDS011;10222;50.848;4.336;2023-08-20T03:27:19;7.37;;;2.20;;
20122;SDS011;10222;50.848;4.336;2023-08-20T03:29:45;6.73;;;2.23;;
20122;SDS011;10222;50.848;4.336;2023-08-20T03:32:11;11.83;;;2.40;;
20122;SDS011;10222;50.848;4.336;2023-08-20T03:34:37;8.05;;;2.60;;
20122;SDS011;10222;50.848;4.336;2023-08-20T03:37:03;6.40;;;2.80;;
20122;SDS011;10222;50.848;4.336;2023-08-20T03:39:30;11.30;;;2.20;;
20122;SDS011;10222;50.848;4.336;2023-08-20T03:41:56;12.80;;;2.70;;
20122;SDS011;10222;50.848;4.336;2023-08-20T03:44:22;9.77;;;2.47;;
20122;SDS011;10222;50.848;4.336;2023-08-20T03:46:48;8.00;;;2.83;;
20122;SDS011;10222;50.848;4.336;2023-08-20T03:49:14;6.90;;;2.20;;
20122;SDS011;10222;50.848;4.336;2023-08-20T03:51:40;6.13;;;2.10;;
20122;SDS011;10222;50.848;4.336;2023-08-20T03:54:07;6.77;;;2.73;;
20122;SDS011;10222;50.848;4.336;2023-08-20T03:56:33;6.68;;;2.35;;
20122;SDS011;10222;50.848;4.336;2023-08-20T03:58:59;8.60;;;2.40;;
20122;SDS011;10222;50.848;4.336;2023-08-20T04:01:25;9.85;;;2.97;;
20122;SDS011;10222;50.848;4.336;2023-08-20T04:03:52;6.60;;;2.55;;
20122;SDS011;10222;50.848;4.336;2023-08-20T04:06:18;7.10;;;1.95;;
20122;SDS011;10222;50.848;4.336;2023-08-20T04:08:44;11.00;;;2.50;;
20122;SDS011;10222;50.848;4.336;2023-08-20T04:11:10;5.82;;;2.22;;
20122;SDS011;10222;50.848;4.336;2023-08-20T04:13:36;7.03;;;2.33;;
20122;SDS011;10222;50.848;4.336;2023-08-20T04:16:02;7.28;;;2.15;;
20122;SDS011;10222;50.848;4.336;2023-08-20T04:18:28;8.67;;;2.37;;
20122;SDS011;10222;50.848;4.336;2023-08-20T04:20:54;8.70;;;2.73;;
20122;SDS011;10222;50.848;4.336;2023-08-20T04:23:22;7.50;;;2.78;;
20122;SDS011;10222;50.848;4.336;2023-08-20T04:25:48;9.15;;;2.40;;
20122;SDS011;10222;50.848;4.336;2023-08-20T04:28:14;5.80;;;2.03;;
20122;SDS011;10222;50.848;4.336;2023-08-20T04:30:40;8.25;;;2.10;;
20122;SDS011;10222;50.848;4.336;2023-08-20T04:33:06;5.13;;;2.17;;
20122;SDS011;10222;50.848;4.336;2023-08-20T04:35:33;6.70;;;2.13;;
20122;SDS011;10222;50.848;4.336;2023-08-20T04:37:59;6.22;;;2.00;;
20122;SDS011;10222;50.848;4.336;2023-08-20T04:40:25;6.83;;;1.97;;
20122;SDS011;10222;50.848;4.336;2023-08-20T04:42:51;7.25;;;2.13;;
20122;SDS011;10222;50.848;4.336;2023-08-20T04:45:17;7.40;;;2.20;;
20122;SDS011;10222;50.848;4.336;2023-08-20T04:47:44;8.20;;;2.28;;
20122;SDS011;10222;50.848;4.336;2023-08-20T04:50:10;5.43;;;2.10;;
20122;SDS011;10222;50.848;4.336;2023-08-20T04:52:36;5.90;;;2.10;;
20122;SDS011;10222;50.848;4.336;2023-08-20T04:55:03;9.57;;;2.10;;
20122;SDS011;10222;50.848;4.336;2023-08-20T04:57:29;5.85;;;2.08;;
20122;SDS011;10222;50.848;4.336;2023-08-20T04:59:55;4.28;;;1.70;;
20122;SDS011;10222;50.848;4.336;2023-08-20T05:02:21;7.13;;;1.90;;
20122;SDS011;10222;50.848;4.336;2023-08-20T05:04:48;6.80;;;2.10;;
20122;SDS011;10222;50.848;4.336;2023-08-20T05:07:14;7.05;;;1.98;;
20122;SDS011;10222;50.848;4.336;2023-08-20T05:09:40;9.53;;;2.43;;
20122;SDS011;10222;50.848;4.336;2023-08-20T05:12:06;6.55;;;2.20;;
20122;SDS011;10222;50.848;4.336;2023-08-20T05:14:32;10.70;;;2.57;;
20122;SDS011;10222;50.848;4.336;2023-08-20T05:16:58;10.20;;;2.20;;
20122;SDS011;10222;50.848;4.336;2023-08-20T05:19:24;6.73;;;2.10;;
20122;SDS011;10222;50.848;4.336;2023-08-20T05:21:50;8.23;;;2.30;;
20122;SDS011;10222;50.848;4.336;2023-08-20T05:24:20;6.93;;;2.60;;
20122;SDS011;10222;50.848;4.336;2023-08-20T05:26:46;5.13;;;2.33;;
20122;SDS011;10222;50.848;4.336;2023-08-20T05:29:12;7.83;;;2.57;;
20122;SDS011;10222;50.848;4.336;2023-08-20T05:31:38;6.70;;;2.10;;
20122;SDS011;10222;50.848;4.336;2023-08-20T05:34:04;5.45;;;2.17;;
20122;SDS011;10222;50.848;4.336;2023-08-20T05:36:30;7.93;;;2.23;;
20122;SDS011;10222;50.848;4.336;2023-08-20T05:38:56;7.03;;;2.20;;
20122;SDS011;10222;50.848;4.336;2023-08-20T05:41:22;7.63;;;2.23;;
20122;SDS011;10222;50.848;4.336;2023-08-20T05:43:48;4.17;;;2.20;;
20122;SDS011;10222;50.848;4.336;2023-08-20T05:46:15;5.78;;;2.03;;
20122;SDS011;10222;50.848;4.336;2023-08-20T05:48:41;6.20;;;1.97;;
20122;SDS011;10222;50.848;4.336;2023-08-20T05:51:07;8.30;;;2.43;;
20122;SDS011;10222;50.848;4.336;2023-08-20T05:53:33;6.03;;;2.23;;
20122;SDS011;10222;50.848;4.336;2023-08-20T05:55:59;9.05;;;2.58;;
20122;SDS011;10222;50.848;4.336;2023-08-20T05:58:25;7.80;;;2.35;;
20122;SDS011;10222;50.848;4.336;2023-08-20T06:00:51;8.23;;;2.75;;
20122;SDS011;10222;50.848;4.336;2023-08-20T06:03:17;10.63;;;3.03;;
20122;SDS011;10222;50.848;4.336;2023-08-20T06:05:43;5.33;;;2.20;;
20122;SDS011;10222;50.848;4.336;2023-08-20T06:08:10;7.32;;;2.33;;
20122;SDS011;10222;50.848;4.336;2023-08-20T06:10:36;6.93;;;2.13;;
20122;SDS011;10222;50.848;4.336;2023-08-20T06:13:02;7.70;;;2.43;;
20122;SDS011;10222;50.848;4.336;2023-08-20T06:15:28;10.00;;;2.85;;
20122;SDS011;10222;50.848;4.336;2023-08-20T06:17:54;7.20;;;2.55;;
20122;SDS011;10222;50.848;4.336;2023-08-20T06:20:20;5.00;;;2.17;;
20122;SDS011;10222;50.848;4.336;2023-08-20T06:22:46;9.33;;;2.50;;
20122;SDS011;10222;50.848;4.336;2023-08-20T06:25:12;9.13;;;3.00;;
20122;SDS011;10222;50.848;4.336;2023-08-20T06:27:38;7.17;;;2.40;;
20122;SDS011;10222;50.848;4.336;2023-08-20T06:30:04;6.53;;;2.50;;
20122;SDS011;10222;50.848;4.336;2023-08-20T06:32:31;6.57;;;2.20;;
20122;SDS011;10222;50.848;4.336;2023-08-20T06:34:57;6.57;;;2.55;;
20122;SDS011;10222;50.848;4.336;2023-08-20T06:37:23;9.73;;;2.42;;
20122;SDS011;10222;50.848;4.336;2023-08-20T06:39:49;6.87;;;2.67;;
20122;SDS011;10222;50.848;4.336;2023-08-20T06:42:15;9.83;;;2.70;;
20122;SDS011;10222;50.848;4.336;2023-08-20T06:44:41;6.73;;;2.20;;
20122;SDS011;10222;50.848;4.336;2023-08-20T06:47:07;5.50;;;2.50;;
20122;SDS011;10222;50.848;4.336;2023-08-20T06:49:33;4.10;;;2.08;;
20122;SDS011;10222;50.848;4.336;2023-08-20T06:51:59;7.28;;;2.47;;
20122;SDS011;10222;50.848;4.336;2023-08-20T06:54:25;7.50;;;2.30;;
20122;SDS011;10222;50.848;4.336;2023-08-20T06:56:51;8.35;;;2.13;;
20122;SDS011;10222;50.848;4.336;2023-08-20T06:59:17;12.68;;;2.60;;
20122;SDS011;10222;50.848;4.336;2023-08-20T07:01:43;6.53;;;2.20;;
20122;SDS011;10222;50.848;4.336;2023-08-20T07:04:09;4.63;;;1.80;;
20122;SDS011;10222;50.848;4.336;2023-08-20T07:06:36;6.00;;;1.85;;
20122;SDS011;10222;50.848;4.336;2023-08-20T07:09:02;6.78;;;1.70;;
20122;SDS011;10222;50.848;4.336;2023-08-20T07:11:28;5.28;;;1.60;;
20122;SDS011;10222;50.848;4.336;2023-08-20T07:13:54;2.70;;;1.10;;
20122;SDS011;10222;50.848;4.336;2023-08-20T07:16:20;3.53;;;1.20;;
20122;SDS011;10222;50.848;4.336;2023-08-20T07:18:48;5.82;;;1.27;;
20122;SDS011;10222;50.848;4.336;2023-08-20T07:21:14;4.45;;;1.20;;
20122;SDS011;10222;50.848;4.336;2023-08-20T07:23:40;2.77;;;1.00;;
20122;SDS011;10222;50.848;4.336;2023-08-20T07:26:06;2.30;;;0.90;;
20122;SDS011;10222;50.848;4.336;2023-08-20T07:28:33;2.43;;;0.83;;
20122;SDS011;10222;50.848;4.336;2023-08-20T07:31:18;5.87;;;1.50;;
20122;SDS011;10222;50.848;4.336;2023-08-20T07:33:47;2.67;;;1.10;;
20122;SDS011;10222;50.848;4.336;2023-08-20T07:36:13;2.75;;;1.00;;
20122;SDS011;10222;50.848;4.336;2023-08-20T07:38:40;4.50;;;1.50;;
20122;SDS011;10222;50.848;4.336;2023-08-20T07:41:07;3.72;;;1.35;;
20122;SDS011;10222;50.848;4.336;2023-08-20T07:43:33;7.68;;;1.33;;
20122;SDS011;10222;50.848;4.336;2023-08-20T07:46:00;4.47;;;1.70;;
20122;SDS011;10222;50.848;4.336;2023-08-20T07:48:26;5.43;;;1.20;;
20122;SDS011;10222;50.848;4.336;2023-08-20T07:50:52;3.57;;;1.00;;
20122;SDS011;10222;50.848;4.336;2023-08-20T07:53:18;1.73;;;0.80;;
20122;SDS011;10222;50.848;4.336;2023-08-20T07:55:44;7.05;;;1.30;;
20122;SDS011;10222;50.848;4.336;2023-08-20T07:58:10;5.82;;;1.70;;
20122;SDS011;10222;50.848;4.336;2023-08-20T08:00:36;4.40;;;1.13;;
20122;SDS011;10222;50.848;4.336;2023-08-20T08:03:02;2.40;;;0.90;;
20122;SDS011;10222;50.848;4.336;2023-08-20T08:05:28;5.10;;;1.20;;
20122;SDS011;10222;50.848;4.336;2023-08-20T08:07:54;2.95;;;1.05;;
20122;SDS011;10222;50.848;4.336;2023-08-20T08:10:21;1.98;;;0.90;;
20122;SDS011;10222;50.848;4.336;2023-08-20T08:12:47;3.27;;;0.83;;
20122;SDS011;10222;50.848;4.336;2023-08-20T08:15:13;2.17;;;0.85;;
20122;SDS011;10222;50.848;4.336;2023-08-20T08:17:39;4.95;;;1.52;;
20122;SDS011;10222;50.848;4.336;2023-08-20T08:20:05;4.10;;;1.52;;
20122;SDS011;10222;50.848;4.336;2023-08-20T08:22:31;5.07;;;1.10;;
20122;SDS011;10222;50.848;4.336;2023-08-20T08:24:57;4.88;;;1.05;;
20122;SDS011;10222;50.848;4.336;2023-08-20T08:27:23;3.50;;;1.00;;
20122;SDS011;10222;50.848;4.336;2023-08-20T08:29:50;3.10;;;0.80;;
20122;SDS011;10222;50.848;4.336;2023-08-20T08:32:20;2.97;;;0.80;;
20122;SDS011;10222;50.848;4.336;2023-08-20T08:34:50;4.53;;;1.02;;
20122;SDS011;10222;50.848;4.336;2023-08-20T08:37:16;5.03;;;0.93;;
20122;SDS011;10222;50.848;4.336;2023-08-20T08:39:42;3.92;;;1.00;;
20122;SDS011;10222;50.848;4.336;2023-08-20T08:42:08;3.10;;;0.95;;
20122;SDS011;10222;50.848;4.336;2023-08-20T08:44:36;3.47;;;1.02;;
20122;SDS011;10222;50.848;4.336;2023-08-20T08:47:03;2.85;;;0.80;;
20122;SDS011;10222;50.848;4.336;2023-08-20T08:49:32;2.92;;;0.82;;
20122;SDS011;10222;50.848;4.336;2023-08-20T08:51:58;2.53;;;0.98;;
20122;SDS011;10222;50.848;4.336;2023-08-20T08:54:25;2.83;;;0.95;;
20122;SDS011;10222;50.848;4.336;2023-08-20T08:56:52;2.38;;;0.70;;
20122;SDS011;10222;50.848;4.336;2023-08-20T08:59:18;2.90;;;0.80;;
20122;SDS011;10222;50.848;4.336;2023-08-20T09:01:44;2.67;;;0.88;;
20122;SDS011;10222;50.848;4.336;2023-08-20T09:04:11;3.22;;;1.40;;
20122;SDS011;10222;50.848;4.336;2023-08-20T09:06:46;1.50;;;0.60;;
20122;SDS011;10222;50.848;4.336;2023-08-20T09:09:13;3.45;;;0.85;;
20122;SDS011;10222;50.848;4.336;2023-08-20T09:11:39;3.08;;;1.35;;
20122;SDS011;10222;50.848;4.336;2023-08-20T09:14:05;3.15;;;0.85;;
20122;SDS011;10222;50.848;4.336;2023-08-20T09:16:31;2.20;;;0.77;;
20122;SDS011;10222;50.848;4.336;2023-08-20T09:19:00;1.85;;;0.63;;
20122;SDS011;10222;50.848;4.336;2023-08-20T09:21:29;2.13;;;0.73;;
20122;SDS011;10222;50.848;4.336;2023-08-20T09:23:56;4.25;;;0.80;;
20122;SDS011;10222;50.848;4.336;2023-08-20T09:26:25;4.20;;;0.93;;
20122;SDS011;10222;50.848;4.336;2023-08-20T09:28:53;2.65;;;0.75;;
20122;SDS011;10222;50.848;4.336;2023-08-20T09:31:20;2.08;;;0.70;;
20122;SDS011;10222;50.848;4.336;2023-08-20T09:33:52;1.33;;;0.70;;
20122;SDS011;10222;50.848;4.336;2023-08-20T09:36:28;1.60;;;0.70;;
20122;SDS011;10222;50.848;4.336;2023-08-20T09:38:55;2.20;;;0.68;;
20122;SDS011;10222;50.848;4.336;2023-08-20T09:41:20;2.95;;;0.80;;
20122;SDS011;10222;50.848;4.336;2023-08-20T09:43:47;4.22;;;0.82;;
20122;SDS011;10222;50.848;4.336;2023-08-20T09:46:14;1.20;;;0.57;;
20122;SDS011;10222;50.848;4.336;2023-08-20T09:48:41;2.33;;;0.50;;
20122;SDS011;10222;50.848;4.336;2023-08-20T09:51:10;1.15;;;0.47;;
20122;SDS011;10222;50.848;4.336;2023-08-20T09:53:51;5.65;;;0.90;;
20122;SDS011;10222;50.848;4.336;2023-08-20T09:56:22;1.77;;;0.55;;
20122;SDS011;10222;50.848;4.336;2023-08-20T09:58:50;1.92;;;0.70;;
20122;SDS011;10222;50.848;4.336;2023-08-20T10:01:16;2.03;;;0.65;;
20122;SDS011;10222;50.848;4.336;2023-08-20T10:03:42;3.72;;;0.70;;
20122;SDS011;10222;50.848;4.336;2023-08-20T10:06:09;1.30;;;0.85;;
20122;SDS011;10222;50.848;4.336;2023-08-20T10:08:36;9.02;;;1.65;;
20122;SDS011;10222;50.848;4.336;2023-08-20T10:11:02;1.45;;;0.80;;
20122;SDS011;10222;50.848;4.336;2023-08-20T10:13:28;1.00;;;0.68;;
20122;SDS011;10222;50.848;4.336;2023-08-20T10:15:55;1.88;;;0.70;;
20122;SDS011;10222;50.848;4.336;2023-08-20T10:18:21;3.10;;;0.70;;
20122;SDS011;10222;50.848;4.336;2023-08-20T10:20:51;1.88;;;0.82;;
20122;SDS011;10222;50.848;4.336;2023-08-20T10:23:20;2.33;;;0.82;;
20122;SDS011;10222;50.848;4.336;2023-08-20T10:25:50;3.53;;;0.70;;
20122;SDS011;10222;50.848;4.336;2023-08-20T10:28:21;4.38;;;0.90;;
20122;SDS011;10222;50.848;4.336;2023-08-20T10:33:30;3.67;;;1.38;;
20122;SDS011;10222;50.848;4.336;2023-08-20T10:35:56;1.45;;;0.77;;
20122;SDS011;10222;50.848;4.336;2023-08-20T10:38:22;3.97;;;0.98;;
20122;SDS011;10222;50.848;4.336;2023-08-20T10:40:52;2.25;;;0.57;;
20122;SDS011;10222;50.848;4.336;2023-08-20T10:48:31;4.78;;;1.02;;
20122;SDS011;10222;50.848;4.336;2023-08-20T10:50:59;6.03;;;0.82;;
20122;SDS011;10222;50.848;4.336;2023-08-20T10:53:31;1.90;;;0.60;;
20122;SDS011;10222;50.848;4.336;2023-08-20T10:56:06;1.10;;;0.65;;
20122;SDS011;10222;50.848;4.336;2023-08-20T10:58:32;2.13;;;0.65;;
20122;SDS011;10222;50.848;4.336;2023-08-20T11:03:41;2.00;;;0.85;;
20122;SDS011;10222;50.848;4.336;2023-08-20T11:06:07;3.58;;;0.88;;
20122;SDS011;10222;50.848;4.336;2023-08-20T11:08:33;2.97;;;0.88;;
20122;SDS011;10222;50.848;4.336;2023-08-20T11:10:59;2.33;;;0.60;;
20122;SDS011;10222;50.848;4.336;2023-08-20T11:13:26;2.53;;;0.45;;
20122;SDS011;10222;50.848;4.336;2023-08-20T11:15:52;3.67;;;0.90;;
20122;SDS011;10222;50.848;4.336;2023-08-20T11:18:18;2.72;;;0.80;;
20122;SDS011;10222;50.848;4.336;2023-08-20T11:20:44;3.90;;;0.90;;
20122;SDS011;10222;50.848;4.336;2023-08-20T11:23:10;2.70;;;0.82;;
20122;SDS011;10222;50.848;4.336;2023-08-20T11:25:41;4.90;;;1.00;;
20122;SDS011;10222;50.848;4.336;2023-08-20T11:28:07;1.73;;;0.50;;
20122;SDS011;10222;50.848;4.336;2023-08-20T11:30:33;2.03;;;0.90;;
20122;SDS011;10222;50.848;4.336;2023-08-20T11:32:59;3.58;;;0.70;;
20122;SDS011;10222;50.848;4.336;2023-08-20T11:35:25;1.13;;;0.57;;
20122;SDS011;10222;50.848;4.336;2023-08-20T11:37:54;2.15;;;0.77;;
20122;SDS011;10222;50.848;4.336;2023-08-20T11:40:21;3.38;;;0.65;;
20122;SDS011;10222;50.848;4.336;2023-08-20T11:42:48;3.78;;;1.05;;
20122;SDS011;10222;50.848;4.336;2023-08-20T11:45:14;2.15;;;0.65;;
20122;SDS011;10222;50.848;4.336;2023-08-20T11:47:40;2.20;;;0.90;;
20122;SDS011;10222;50.848;4.336;2023-08-20T11:50:07;5.70;;;1.15;;
20122;SDS011;10222;50.848;4.336;2023-08-20T11:52:37;2.35;;;1.10;;
20122;SDS011;10222;50.848;4.336;2023-08-20T11:55:07;1.67;;;0.88;;
20122;SDS011;10222;50.848;4.336;2023-08-20T11:57:34;2.20;;;0.60;;
20122;SDS011;10222;50.848;4.336;2023-08-20T12:00:04;4.00;;;0.82;;
20122;SDS011;10222;50.848;4.336;2023-08-20T12:02:34;2.53;;;0.93;;
20122;SDS011;10222;50.848;4.336;2023-08-20T12:05:00;2.63;;;0.70;;
20122;SDS011;10222;50.848;4.336;2023-08-20T12:07:28;3.33;;;0.85;;
20122;SDS011;10222;50.848;4.336;2023-08-20T12:09:54;1.15;;;0.50;;
20122;SDS011;10222;50.848;4.336;2023-08-20T12:12:21;2.88;;;0.77;;
20122;SDS011;10222;50.848;4.336;2023-08-20T12:14:47;1.67;;;0.80;;
20122;SDS011;10222;50.848;4.336;2023-08-20T12:17:18;3.08;;;1.00;;
20122;SDS011;10222;50.848;4.336;2023-08-20T12:19:44;1.83;;;0.98;;
20122;SDS011;10222;50.848;4.336;2023-08-20T12:22:10;3.65;;;0.98;;
20122;SDS011;10222;50.848;4.336;2023-08-20T12:24:37;2.13;;;0.70;;
20122;SDS011;10222;50.848;4.336;2023-08-20T12:27:03;1.85;;;0.55;;
20122;SDS011;10222;50.848;4.336;2023-08-20T12:29:29;0.95;;;0.68;;
20122;SDS011;10222;50.848;4.336;2023-08-20T12:31:55;2.78;;;0.85;;
20122;SDS011;10222;50.848;4.336;2023-08-20T12:34:21;4.85;;;0.77;;
20122;SDS011;10222;50.848;4.336;2023-08-20T12:36:48;2.17;;;0.88;;
20122;SDS011;10222;50.848;4.336;2023-08-20T12:39:15;3.63;;;0.52;;
20122;SDS011;10222;50.848;4.336;2023-08-20T12:41:41;1.88;;;0.80;;
20122;SDS011;10222;50.848;4.336;2023-08-20T12:44:08;2.58;;;0.70;;
20122;SDS011;10222;50.848;4.336;2023-08-20T12:46:34;1.67;;;0.70;;
20122;SDS011;10222;50.848;4.336;2023-08-20T12:49:00;2.20;;;0.82;;
20122;SDS011;10222;50.848;4.336;2023-08-20T12:51:26;2.45;;;0.90;;
20122;SDS011;10222;50.848;4.336;2023-08-20T12:53:52;1.70;;;0.40;;
20122;SDS011;10222;50.848;4.336;2023-08-20T12:56:18;4.22;;;1.67;;
20122;SDS011;10222;50.848;4.336;2023-08-20T12:58:44;2.60;;;1.02;;
20122;SDS011;10222;50.848;4.336;2023-08-20T13:01:10;2.53;;;0.90;;
20122;SDS011;10222;50.848;4.336;2023-08-20T13:03:37;3.70;;;1.08;;
20122;SDS011;10222;50.848;4.336;2023-08-20T13:06:03;5.43;;;0.80;;
20122;SDS011;10222;50.848;4.336;2023-08-20T13:08:29;3.35;;;0.80;;
20122;SDS011;10222;50.848;4.336;2023-08-20T13:10:57;1.85;;;0.80;;
20122;SDS011;10222;50.848;4.336;2023-08-20T13:13:23;2.80;;;0.47;;
20122;SDS011;10222;50.848;4.336;2023-08-20T13:15:53;1.13;;;0.52;;
20122;SDS011;10222;50.848;4.336;2023-08-20T13:18:19;2.65;;;0.88;;
20122;SDS011;10222;50.848;4.336;2023-08-20T13:20:49;3.85;;;1.05;;
20122;SDS011;10222;50.848;4.336;2023-08-20T13:23:15;3.90;;;0.80;;
20122;SDS011;10222;50.848;4.336;2023-08-20T13:25:41;2.20;;;0.63;;
20122;SDS011;10222;50.848;4.336;2023-08-20T13:28:08;3.20;;;0.95;;
20122;SDS011;10222;50.848;4.336;2023-08-20T13:30:34;7.60;;;1.15;;
20122;SDS011;10222;50.848;4.336;2023-08-20T13:33:00;2.63;;;0.68;;
20122;SDS011;10222;50.848;4.336;2023-08-20T13:35:26;2.03;;;0.80;;
20122;SDS011;10222;50.848;4.336;2023-08-20T13:37:52;5.20;;;1.42;;
20122;SDS011;10222;50.848;4.336;2023-08-20T13:40:18;4.05;;;0.98;;
20122;SDS011;10222;50.848;4.336;2023-08-20T13:42:44;2.42;;;0.80;;
20122;SDS011;10222;50.848;4.336;2023-08-20T13:45:10;1.42;;;0.60;;
20122;SDS011;10222;50.848;4.336;2023-08-20T13:47:36;1.58;;;0.77;;
20122;SDS011;10222;50.848;4.336;2023-08-20T13:50:02;2.58;;;0.73;;
20122;SDS011;10222;50.848;4.336;2023-08-20T13:52:29;2.33;;;0.80;;
20122;SDS011;10222;50.848;4.336;2023-08-20T13:54:55;2.67;;;0.93;;
20122;SDS011;10222;50.848;4.336;2023-08-20T13:57:21;2.15;;;0.60;;
20122;SDS011;10222;50.848;4.336;2023-08-20T13:59:47;2.17;;;1.00;;
20122;SDS011;10222;50.848;4.336;2023-08-20T14:02:13;2.67;;;1.00;;
20122;SDS011;10222;50.848;4.336;2023-08-20T14:04:39;2.50;;;0.77;;
20122;SDS011;10222;50.848;4.336;2023-08-20T14:07:05;3.92;;;0.73;;
20122;SDS011;10222;50.848;4.336;2023-08-20T14:09:31;3.45;;;0.57;;
20122;SDS011;10222;50.848;4.336;2023-08-20T14:11:59;2.28;;;0.80;;
20122;SDS011;10222;50.848;4.336;2023-08-20T14:14:25;1.60;;;0.73;;
20122;SDS011;10222;50.848;4.336;2023-08-20T14:16:52;2.72;;;0.77;;
20122;SDS011;10222;50.848;4.336;2023-08-20T14:19:18;1.33;;;0.40;;
20122;SDS011;10222;50.848;4.336;2023-08-20T14:21:44;1.83;;;0.70;;
20122;SDS011;10222;50.848;4.336;2023-08-20T14:24:10;1.40;;;0.60;;
20122;SDS011;10222;50.848;4.336;2023-08-20T14:26:36;5.88;;;0.82;;
20122;SDS011;10222;50.848;4.336;2023-08-20T14:29:02;4.13;;;0.50;;
20122;SDS011;10222;50.848;4.336;2023-08-20T14:31:28;1.05;;;0.38;;
20122;SDS011;10222;50.848;4.336;2023-08-20T14:33:54;2.03;;;0.75;;
20122;SDS011;10222;50.848;4.336;2023-08-20T14:36:20;1.45;;;0.60;;
20122;SDS011;10222;50.848;4.336;2023-08-20T14:38:46;1.00;;;0.57;;
20122;SDS011;10222;50.848;4.336;2023-08-20T14:41:12;1.85;;;0.70;;
20122;SDS011;10222;50.848;4.336;2023-08-20T14:43:38;2.25;;;0.77;;
20122;SDS011;10222;50.848;4.336;2023-08-20T14:46:04;1.38;;;0.80;;
20122;SDS011;10222;50.848;4.336;2023-08-20T14:48:30;2.72;;;0.77;;
20122;SDS011;10222;50.848;4.336;2023-08-20T14:50:56;1.42;;;0.70;;
20122;SDS011;10222;50.848;4.336;2023-08-20T14:53:23;3.17;;;0.77;;
20122;SDS011;10222;50.848;4.336;2023-08-20T14:55:49;1.85;;;0.52;;
20122;SDS011;10222;50.848;4.336;2023-08-20T14:58:15;2.42;;;0.80;;
20122;SDS011;10222;50.848;4.336;2023-08-20T15:00:41;1.80;;;0.90;;
20122;SDS011;10222;50.848;4.336;2023-08-20T15:03:07;1.35;;;0.40;;
20122;SDS011;10222;50.848;4.336;2023-08-20T15:05:33;4.80;;;0.70;;